Time;durP1;ratioP1;P1;durP2;ratioP2;P2;SDS_P1;SDS_P2;PMS_P1;PMS_P2;Temp;Humidity;BMP_temperature;BMP_pressure;BME280_temperature;BME280_humidity;BME280_pressure;Samples;Min_cycle;Max_cycle;Signal;HPM_P1;HPM_P2
2022/05/05 00:00:15;;;;;;;14.73;6.63;;;5.90;99.90;;;;;;5095535;28;20036;-86
2022/05/05 00:02:40;;;;;;;10.25;6.70;;;5.90;99.90;;;;;;5107359;28;20051;-85
2022/05/05 00:05:06;;;;;;;14.27;6.75;;;5.90;99.90;;;;;;5108259;28;20032;-86
2022/05/05 00:07:32;;;;;;;14.50;6.93;;;5.90;99.90;;;;;;5093385;28;20372;-86
2022/05/05 00:09:58;;;;;;;20.48;7.68;;;5.90;99.90;;;;;;5093295;28;20051;-86
2022/05/05 00:15:08;;;;;;;13.05;6.85;;;5.90;99.90;;;;;;5093735;28;20052;-86
2022/05/05 00:17:34;;;;;;;12.60;6.72;;;5.90;99.90;;;;;;5106684;28;20056;-86
2022/05/05 00:20:01;;;;;;;11.93;6.80;;;5.90;99.90;;;;;;5095435;28;20040;-86
2022/05/05 00:22:26;;;;;;;19.55;8.27;;;5.90;99.90;;;;;;5093203;28;20048;-86
2022/05/05 00:24:52;;;;;;;18.38;7.80;;;5.90;99.90;;;;;;5093692;28;20050;-86
2022/05/05 00:27:18;;;;;;;16.45;8.20;;;6.00;99.90;;;;;;5094964;28;20487;-86
2022/05/05 00:29:44;;;;;;;13.80;8.05;;;6.00;99.90;;;;;;5108843;28;20109;-86
2022/05/05 00:32:11;;;;;;;14.05;7.47;;;6.00;99.90;;;;;;5114510;28;20043;-86
2022/05/05 00:34:37;;;;;;;12.50;7.75;;;6.00;99.90;;;;;;5097737;28;20119;-86
2022/05/05 00:37:03;;;;;;;17.77;8.55;;;6.00;99.90;;;;;;5093239;28;20452;-86
2022/05/05 00:39:29;;;;;;;20.23;8.82;;;6.00;99.90;;;;;;5093334;28;20043;-86
2022/05/05 00:41:57;;;;;;;17.60;8.38;;;6.10;99.90;;;;;;5094109;28;20032;-86
2022/05/05 00:44:23;;;;;;;20.40;9.05;;;6.10;99.90;;;;;;5092329;28;20135;-86
2022/05/05 00:46:50;;;;;;;18.60;8.02;;;6.10;99.90;;;;;;5104992;28;20123;-86
2022/05/05 00:49:16;;;;;;;14.43;7.75;;;6.20;99.90;;;;;;5102413;28;20079;-85
2022/05/05 00:51:42;;;;;;;14.40;7.57;;;6.20;99.90;;;;;;5091590;28;20519;-86
2022/05/05 00:54:08;;;;;;;17.83;8.65;;;6.20;99.90;;;;;;5076146;28;20056;-86
2022/05/05 00:56:34;;;;;;;15.30;7.25;;;6.20;99.90;;;;;;5092435;28;20063;-86
2022/05/05 00:59:01;;;;;;;15.50;8.68;;;6.20;99.90;;;;;;5075428;28;20052;-86
2022/05/05 01:01:27;;;;;;;15.48;8.48;;;6.30;99.90;;;;;;5103730;28;20058;-86
2022/05/05 01:03:53;;;;;;;13.20;7.05;;;6.30;99.90;;;;;;5108351;28;20502;-85
2022/05/05 01:06:19;;;;;;;13.18;7.10;;;6.30;99.90;;;;;;5092909;28;20105;-86
2022/05/05 01:08:46;;;;;;;16.42;7.90;;;6.30;99.90;;;;;;5093002;28;20040;-86
2022/05/05 01:11:12;;;;;;;11.27;7.32;;;6.30;99.90;;;;;;5092239;28;20433;-86
2022/05/05 01:13:42;;;;;;;20.95;8.02;;;6.30;99.90;;;;;;5093521;28;20040;-86
2022/05/05 01:16:10;;;;;;;10.63;7.53;;;6.30;99.90;;;;;;5103077;28;20403;-86
2022/05/05 01:18:36;;;;;;;16.30;7.47;;;6.30;99.90;;;;;;5111427;28;20527;-86
2022/05/05 01:21:03;;;;;;;12.60;7.65;;;6.30;99.90;;;;;;5112261;28;20047;-86
2022/05/05 01:23:28;;;;;;;10.70;7.57;;;6.30;99.90;;;;;;5094973;28;20090;-86
2022/05/05 01:28:43;;;;;;;12.02;6.63;;;6.20;99.90;;;;;;5098652;28;20080;-86
2022/05/05 01:31:09;;;;;;;20.33;6.95;;;6.20;99.90;;;;;;5096253;28;20453;-86
2022/05/05 01:33:35;;;;;;;12.63;7.15;;;6.20;99.90;;;;;;5113666;28;20043;-86
2022/05/05 01:36:01;;;;;;;17.13;7.57;;;6.20;99.90;;;;;;5116606;28;20482;-86
2022/05/05 01:38:40;;;;;;;15.57;7.25;;;6.20;99.90;;;;;;5100632;27;20101;-86
2022/05/05 01:41:11;;;;;;;18.75;7.57;;;6.20;99.90;;;;;;5096623;28;20040;-86
2022/05/05 01:43:38;;;;;;;17.27;8.48;;;6.20;99.90;;;;;;5098074;28;20490;-86
2022/05/05 01:46:04;;;;;;;15.90;6.82;;;6.20;99.90;;;;;;5096524;28;20080;-86
2022/05/05 01:48:31;;;;;;;14.10;8.23;;;6.20;99.90;;;;;;5099887;28;20048;-86
2022/05/05 01:50:57;;;;;;;15.45;7.55;;;6.20;99.90;;;;;;5110530;28;20505;-86
2022/05/05 01:53:24;;;;;;;15.63;8.10;;;6.20;99.90;;;;;;5095501;28;20056;-86
2022/05/05 01:55:49;;;;;;;16.40;7.88;;;6.10;99.90;;;;;;5099662;28;20048;-86
2022/05/05 01:58:15;;;;;;;13.60;7.93;;;6.20;99.90;;;;;;5117481;28;20055;-86
2022/05/05 02:00:41;;;;;;;16.60;8.52;;;6.10;99.90;;;;;;5115037;28;20383;-86
2022/05/05 02:03:12;;;;;;;16.48;8.30;;;6.10;99.90;;;;;;5094841;28;20123;-86
2022/05/05 02:05:45;;;;;;;13.55;7.57;;;6.10;99.90;;;;;;5097579;28;20040;-86
2022/05/05 02:08:12;;;;;;;16.65;8.27;;;6.10;99.90;;;;;;5107371;28;20047;-86
2022/05/05 02:10:38;;;;;;;13.93;7.57;;;6.10;99.90;;;;;;5116200;28;20083;-86
2022/05/05 02:13:06;;;;;;;16.90;8.15;;;6.10;99.90;;;;;;5095684;28;20202;-86
2022/05/05 02:15:34;;;;;;;13.68;7.20;;;6.10;99.90;;;;;;5095943;28;20047;-86
2022/05/05 02:18:09;;;;;;;14.43;8.38;;;5.80;99.90;;;;;;5097687;28;20050;-86
2022/05/05 02:20:34;;;;;;;13.00;7.55;;;6.00;99.90;;;;;;5095482;28;20051;-86
2022/05/05 02:23:00;;;;;;;12.60;7.05;;;6.00;99.90;;;;;;5107945;28;20043;-86
2022/05/05 02:25:26;;;;;;;14.82;8.02;;;5.90;99.90;;;;;;5106501;28;20056;-86
2022/05/05 02:27:54;;;;;;;15.27;7.38;;;5.90;99.90;;;;;;5096380;28;20044;-86
2022/05/05 02:30:22;;;;;;;15.30;7.35;;;5.80;99.90;;;;;;5102833;28;20054;-86
2022/05/05 02:32:48;;;;;;;13.55;7.85;;;5.80;99.90;;;;;;5114321;28;20051;-86
2022/05/05 02:35:15;;;;;;;14.70;7.68;;;5.80;99.90;;;;;;5108641;28;20127;-86
2022/05/05 02:40:26;;;;;;;12.43;7.20;;;5.80;99.90;;;;;;5096729;28;20079;-86
2022/05/05 02:42:54;;;;;;;12.18;7.22;;;5.70;99.90;;;;;;5095010;28;20486;-86
2022/05/05 02:45:19;;;;;;;14.35;8.07;;;5.70;99.90;;;;;;5095932;28;20491;-86
2022/05/05 02:47:47;;;;;;;13.77;7.70;;;5.70;99.90;;;;;;5106564;28;20039;-86
2022/05/05 02:50:13;;;;;;;13.10;7.22;;;5.60;99.90;;;;;;5110189;28;20084;-86
2022/05/05 02:52:39;;;;;;;15.15;8.48;;;5.60;99.90;;;;;;5093651;28;20056;-85
2022/05/05 02:55:07;;;;;;;10.82;7.25;;;5.60;99.90;;;;;;5096565;28;20081;-86
2022/05/05 02:57:32;;;;;;;16.63;7.07;;;5.60;99.90;;;;;;5094105;28;20109;-86
2022/05/05 02:59:58;;;;;;;14.45;7.47;;;5.60;99.90;;;;;;5095348;28;20480;-86
2022/05/05 03:02:24;;;;;;;17.30;7.80;;;5.60;99.90;;;;;;5105399;28;20071;-86
2022/05/05 03:04:50;;;;;;;24.27;8.32;;;5.60;99.90;;;;;;5096464;28;20051;-85
2022/05/05 03:07:16;;;;;;;14.30;7.80;;;5.50;99.90;;;;;;5096360;28;20079;-86
2022/05/05 03:09:42;;;;;;;16.25;8.57;;;5.50;99.90;;;;;;5095703;28;20032;-86
2022/05/05 03:12:09;;;;;;;17.23;8.90;;;5.40;99.90;;;;;;5095390;28;20529;-86
2022/05/05 03:14:36;;;;;;;10.63;7.28;;;5.40;99.90;;;;;;5095628;28;20513;-86
2022/05/05 03:17:02;;;;;;;13.48;8.65;;;5.40;99.90;;;;;;5094746;28;20059;-86
2022/05/05 03:19:28;;;;;;;19.25;9.40;;;5.30;99.90;;;;;;5094682;28;20043;-86
2022/05/05 03:21:54;;;;;;;15.93;7.72;;;5.30;99.90;;;;;;5102429;28;20457;-86
2022/05/05 03:24:20;;;;;;;9.55;7.53;;;5.30;99.90;;;;;;5131648;27;20043;-86
2022/05/05 03:26:46;;;;;;;12.80;7.90;;;5.30;99.90;;;;;;5112929;28;20035;-86
2022/05/05 03:29:11;;;;;;;13.27;8.02;;;5.20;99.90;;;;;;5115717;28;20440;-86
2022/05/05 03:31:37;;;;;;;10.80;7.95;;;5.20;99.90;;;;;;5101563;28;20049;-86
2022/05/05 03:34:04;;;;;;;11.98;7.80;;;5.20;99.90;;;;;;5094015;28;20123;-86
2022/05/05 03:36:30;;;;;;;11.63;8.10;;;5.10;99.90;;;;;;5095122;28;20040;-86
2022/05/05 03:38:56;;;;;;;14.55;7.70;;;5.10;99.90;;;;;;5094732;28;20093;-86
2022/05/05 03:41:22;;;;;;;12.77;8.25;;;5.10;99.90;;;;;;5093096;28;20047;-86
2022/05/05 03:43:48;;;;;;;14.32;8.68;;;5.10;99.90;;;;;;5095806;28;20114;-86
2022/05/05 03:46:14;;;;;;;12.73;8.65;;;5.00;99.90;;;;;;5107626;28;20090;-86
2022/05/05 03:48:39;;;;;;;15.23;7.57;;;5.00;99.90;;;;;;5113653;28;20478;-86
2022/05/05 03:51:05;;;;;;;22.70;9.10;;;5.00;99.90;;;;;;5112979;28;20552;-86
2022/05/05 03:53:32;;;;;;;16.50;8.00;;;5.00;99.90;;;;;;5109781;28;20052;-86
2022/05/05 03:55:57;;;;;;;13.15;8.35;;;5.00;99.90;;;;;;5094214;28;20048;-86
2022/05/05 03:58:23;;;;;;;13.07;9.35;;;4.90;99.90;;;;;;5097257;28;20051;-86
2022/05/05 04:00:49;;;;;;;16.83;8.30;;;4.90;99.90;;;;;;5112902;28;20078;-86
2022/05/05 04:03:34;;;;;;;15.35;8.25;;;5.00;99.90;;;;;;5113265;28;20352;-86
2022/05/05 04:06:04;;;;;;;;;;;5.00;99.90;;;;;;5093204;28;20056;-86
2022/05/05 04:08:30;;;;;;;16.65;8.55;;;4.90;99.90;;;;;;5093063;28;19920;-86
2022/05/05 04:10:56;;;;;;;16.63;8.48;;;4.90;99.90;;;;;;5094542;28;20043;-86
2022/05/05 04:13:22;;;;;;;14.63;8.45;;;4.90;99.90;;;;;;5095071;28;20036;-85
2022/05/05 04:15:49;;;;;;;15.77;8.45;;;4.90;99.90;;;;;;5114785;27;20131;-86
2022/05/05 04:18:14;;;;;;;17.13;8.38;;;4.90;99.90;;;;;;5094359;28;20140;-86
2022/05/05 04:20:43;;;;;;;16.65;8.65;;;4.90;99.90;;;;;;5095177;28;20146;-86
2022/05/05 04:23:10;;;;;;;21.33;8.07;;;4.90;99.90;;;;;;5093487;28;20395;-86
2022/05/05 04:25:40;;;;;;;12.43;8.00;;;4.90;99.90;;;;;;5096339;28;20052;-86
2022/05/05 04:28:10;;;;;;;13.35;9.07;;;4.90;99.90;;;;;;5114537;28;20380;-86
2022/05/05 04:30:37;;;;;;;15.35;9.68;;;4.90;99.90;;;;;;5110304;28;20035;-86
2022/05/05 04:33:03;;;;;;;17.63;8.70;;;4.90;99.90;;;;;;5113219;28;20047;-86
2022/05/05 04:35:30;;;;;;;15.68;8.60;;;4.80;99.90;;;;;;5097130;28;20119;-86
2022/05/05 04:37:56;;;;;;;14.80;8.63;;;4.80;99.90;;;;;;5102953;28;20046;-86
2022/05/05 04:40:22;;;;;;;13.73;8.23;;;4.70;99.90;;;;;;5130176;27;20589;-86
2022/05/05 04:42:47;;;;;;;12.35;8.00;;;4.80;99.90;;;;;;5113374;28;20123;-86
2022/05/05 04:45:13;;;;;;;19.23;9.23;;;4.70;99.90;;;;;;5111995;28;20050;-86
2022/05/05 04:47:39;;;;;;;15.55;8.70;;;4.80;99.90;;;;;;5104536;28;20050;-86
2022/05/05 04:50:06;;;;;;;13.73;8.30;;;4.80;99.90;;;;;;5091799;28;20040;-86
2022/05/05 04:52:32;;;;;;;18.67;7.93;;;4.80;99.90;;;;;;5094432;28;20368;-86
2022/05/05 04:54:59;;;;;;;18.55;8.35;;;4.80;99.90;;;;;;5092765;28;20402;-86
2022/05/05 04:57:25;;;;;;;13.52;8.63;;;4.90;99.90;;;;;;5092372;28;20044;-86
2022/05/05 04:59:50;;;;;;;17.13;9.85;;;4.90;99.90;;;;;;5093690;28;20036;-86
2022/05/05 05:02:16;;;;;;;12.60;8.80;;;5.00;99.90;;;;;;5100122;28;20521;-87
2022/05/05 05:04:42;;;;;;;17.35;9.35;;;5.00;99.90;;;;;;5112872;28;20043;-87
2022/05/05 05:07:07;;;;;;;14.52;8.18;;;5.00;99.90;;;;;;5100575;28;20075;-89
2022/05/05 05:09:34;;;;;;;20.23;8.95;;;5.10;99.90;;;;;;5093559;28;20052;-86
2022/05/05 05:12:01;;;;;;;19.13;8.90;;;5.10;99.90;;;;;;5111534;28;20521;-88
2022/05/05 05:14:26;;;;;;;16.85;8.68;;;5.10;99.90;;;;;;5114104;28;20036;-88
2022/05/05 05:16:52;;;;;;;16.90;8.98;;;5.20;99.90;;;;;;5112494;28;20046;-87
2022/05/05 05:19:19;;;;;;;14.88;9.82;;;5.20;99.90;;;;;;5111982;28;20039;-87
2022/05/05 05:21:45;;;;;;;11.80;8.60;;;5.30;99.90;;;;;;5113234;28;20398;-87
2022/05/05 05:24:12;;;;;;;13.85;8.57;;;5.30;99.90;;;;;;5123664;28;20512;-87
2022/05/05 05:26:38;;;;;;;13.65;8.35;;;5.40;99.90;;;;;;5133683;27;20039;-88
2022/05/05 05:29:03;;;;;;;14.90;9.25;;;5.40;99.90;;;;;;5113688;28;20367;-87
2022/05/05 05:31:29;;;;;;;23.25;9.73;;;5.50;99.90;;;;;;5113874;28;20040;-86
2022/05/05 05:33:55;;;;;;;13.98;10.05;;;5.60;99.90;;;;;;5113060;28;20044;-87
2022/05/05 05:36:21;;;;;;;20.02;9.00;;;5.60;99.90;;;;;;5113870;28;20047;-86
2022/05/05 05:38:46;;;;;;;19.88;10.10;;;5.70;99.90;;;;;;5113542;28;20539;-85
2022/05/05 05:41:12;;;;;;;18.00;8.98;;;5.80;99.90;;;;;;5112684;28;20077;-86
2022/05/05 05:43:39;;;;;;;18.27;9.07;;;5.90;99.90;;;;;;5105444;28;20161;-86
2022/05/05 05:46:04;;;;;;;14.15;9.57;;;6.00;99.90;;;;;;5093478;28;20399;-86
2022/05/05 05:48:31;;;;;;;15.82;10.13;;;6.20;99.90;;;;;;5097363;28;20036;-85
2022/05/05 05:50:56;;;;;;;21.98;11.05;;;6.30;99.90;;;;;;5113668;28;20090;-86
2022/05/05 05:53:22;;;;;;;16.75;9.90;;;6.40;99.90;;;;;;5111449;28;20476;-85
2022/05/05 05:55:48;;;;;;;29.88;10.45;;;6.60;99.90;;;;;;5111968;28;20052;-86
2022/05/05 05:58:14;;;;;;;23.10;10.93;;;6.70;99.90;;;;;;5112534;28;20047;-86
2022/05/05 06:00:39;;;;;;;14.90;9.52;;;6.80;99.90;;;;;;5112794;28;20046;-86
2022/05/05 06:05:50;;;;;;;21.38;9.80;;;7.10;99.90;;;;;;5093969;28;20483;-88
2022/05/05 06:08:17;;;;;;;20.75;10.90;;;7.20;99.90;;;;;;5092689;28;20098;-86
2022/05/05 06:10:43;;;;;;;22.85;10.27;;;7.40;99.90;;;;;;5115166;28;20093;-86
2022/05/05 06:13:10;;;;;;;20.92;10.15;;;7.50;99.90;;;;;;5116289;28;20126;-86
2022/05/05 06:15:36;;;;;;;17.33;10.32;;;7.70;99.90;;;;;;5116427;28;20040;-87
2022/05/05 06:18:01;;;;;;;19.88;9.25;;;7.80;99.90;;;;;;5116000;28;20039;-87
2022/05/05 06:20:27;;;;;;;19.38;10.30;;;8.00;99.90;;;;;;5116841;28;20047;-89
2022/05/05 06:22:54;;;;;;;13.98;9.55;;;8.20;99.90;;;;;;5115381;28;20038;-90
2022/05/05 06:25:23;;;;;;;20.15;9.45;;;8.30;99.90;;;;;;5116692;28;20079;-89
2022/05/05 06:27:49;;;;;;;19.77;9.45;;;8.50;99.90;;;;;;5109903;28;20119;-89
2022/05/05 06:30:16;;;;;;;18.00;9.45;;;8.60;99.90;;;;;;5094545;28;20166;-90
2022/05/05 06:32:43;;;;;;;15.90;9.20;;;8.80;99.90;;;;;;5101688;28;20036;-91
2022/05/05 06:35:09;;;;;;;21.52;9.77;;;8.90;99.90;;;;;;5115783;28;20122;-90
2022/05/05 06:37:38;;;;;;;18.15;8.32;;;9.10;99.90;;;;;;5112375;28;20043;-87
2022/05/05 06:40:06;;;;;;;17.02;8.55;;;9.30;99.90;;;;;;5104113;28;20043;-87
2022/05/05 06:42:32;;;;;;;14.38;8.43;;;9.40;99.90;;;;;;5114835;28;20039;-89
2022/05/05 06:44:59;;;;;;;17.05;8.48;;;9.60;99.90;;;;;;5116144;28;20479;-88
2022/05/05 06:47:25;;;;;;;11.68;7.40;;;9.70;99.90;;;;;;5120645;27;20069;-88
2022/05/05 06:49:51;;;;;;;19.02;8.57;;;9.80;99.90;;;;;;5097135;28;20105;-87
2022/05/05 06:52:20;;;;;;;27.92;10.18;;;9.90;99.90;;;;;;5098045;28;20040;-88
2022/05/05 06:54:46;;;;;;;27.00;8.50;;;10.00;99.90;;;;;;5114299;28;20052;-88
2022/05/05 06:57:12;;;;;;;17.25;8.88;;;10.20;99.90;;;;;;5108944;28;20048;-89
2022/05/05 06:59:38;;;;;;;13.60;8.02;;;10.30;99.90;;;;;;5096679;28;20491;-88
2022/05/05 07:02:04;;;;;;;15.10;8.98;;;10.40;99.90;;;;;;5114620;28;20054;-87
2022/05/05 07:07:20;;;;;;;15.73;8.55;;;10.60;99.90;;;;;;5094449;28;20060;-89
2022/05/05 07:12:31;;;;;;;17.58;8.52;;;10.80;99.90;;;;;;5101905;28;20047;-89
2022/05/05 07:14:58;;;;;;;12.52;7.07;;;10.90;99.90;;;;;;5101760;28;20127;-88
2022/05/05 07:17:25;;;;;;;13.43;7.65;;;11.00;99.90;;;;;;5093930;28;20044;-89
2022/05/05 07:19:52;;;;;;;16.67;8.38;;;11.20;99.90;;;;;;5076123;28;20048;-88
2022/05/05 07:22:18;;;;;;;16.95;8.32;;;11.30;99.90;;;;;;5094607;28;20037;-88
2022/05/05 07:24:44;;;;;;;16.38;7.25;;;11.30;99.90;;;;;;5111377;27;20047;-88
2022/05/05 07:27:10;;;;;;;14.73;7.43;;;11.40;99.90;;;;;;5094190;28;20089;-88
2022/05/05 07:29:43;;;;;;;21.15;7.95;;;11.50;99.90;;;;;;5094235;28;20130;-89
2022/05/05 07:32:10;;;;;;;14.30;8.15;;;11.60;99.90;;;;;;5092962;28;20105;-89
2022/05/05 07:34:36;;;;;;;12.65;7.35;;;11.70;99.90;;;;;;5101418;28;20054;-88
2022/05/05 07:37:02;;;;;;;13.23;6.95;;;11.70;99.90;;;;;;5115263;28;20047;-88
2022/05/05 07:39:28;;;;;;;19.08;6.97;;;11.90;99.90;;;;;;5113444;28;20039;-86
2022/05/05 07:41:57;;;;;;;21.60;7.68;;;12.00;99.90;;;;;;5107420;28;20050;-89
2022/05/05 07:44:23;;;;;;;18.15;7.50;;;12.10;99.90;;;;;;5096014;28;20090;-91
2022/05/05 07:46:49;;;;;;;15.43;6.90;;;12.20;99.90;;;;;;5107314;28;20486;-91
2022/05/05 07:49:15;;;;;;;16.75;6.63;;;12.20;99.90;;;;;;5095886;28;20091;-91
2022/05/05 07:51:43;;;;;;;13.10;6.10;;;12.30;99.90;;;;;;5110358;27;20499;-92
2022/05/05 07:56:57;;;;;;;13.15;6.28;;;12.50;99.90;;;;;;5113427;27;20048;-90
2022/05/05 07:59:23;;;;;;;15.32;5.43;;;12.70;99.90;;;;;;5110894;28;20475;-92
2022/05/05 08:01:49;;;;;;;11.05;5.22;;;12.70;99.90;;;;;;5113282;28;20068;-90
2022/05/05 08:04:16;;;;;;;14.82;5.57;;;12.80;99.90;;;;;;5114383;28;20120;-91
2022/05/05 08:06:41;;;;;;;14.82;5.15;;;12.90;99.90;;;;;;5114642;28;20051;-91
2022/05/05 08:09:07;;;;;;;14.90;4.25;;;13.00;99.90;;;;;;5114138;28;20051;-91
2022/05/05 08:11:35;;;;;;;11.90;5.07;;;13.20;99.90;;;;;;5114728;28;20413;-91
2022/05/05 08:14:01;;;;;;;13.55;3.85;;;13.20;99.90;;;;;;5100564;28;20219;-90
2022/05/05 08:16:27;;;;;;;12.75;4.47;;;13.40;99.90;;;;;;5079511;28;20123;-92
2022/05/05 08:18:53;;;;;;;10.95;4.50;;;13.50;99.90;;;;;;5105849;28;20118;-92
2022/05/05 08:21:18;;;;;;;9.63;3.88;;;13.70;99.90;;;;;;5111919;28;20039;-92
2022/05/05 08:23:44;;;;;;;16.20;5.57;;;13.80;99.90;;;;;;5112262;28;20494;-91
2022/05/05 08:28:55;;;;;;;12.35;4.43;;;14.00;99.90;;;;;;5109310;28;20047;-94
2022/05/05 08:31:21;;;;;;;12.88;4.13;;;14.10;99.90;;;;;;5114951;28;20125;-90
2022/05/05 08:33:47;;;;;;;13.45;4.30;;;14.20;99.90;;;;;;5098909;28;20062;-93
2022/05/05 08:36:13;;;;;;;10.73;4.68;;;14.40;99.90;;;;;;5097224;28;20399;-91
2022/05/05 08:38:39;;;;;;;9.57;3.80;;;14.50;99.90;;;;;;5108817;28;20047;-91
2022/05/05 08:41:10;;;;;;;13.25;4.32;;;14.60;99.90;;;;;;5128562;27;20048;-94
2022/05/05 08:43:36;;;;;;;11.23;4.05;;;14.70;99.90;;;;;;5089645;28;20077;-91
2022/05/05 08:46:03;;;;;;;11.30;3.67;;;14.80;99.90;;;;;;5107247;28;20044;-92
2022/05/05 08:48:31;;;;;;;10.80;4.63;;;14.80;99.90;;;;;;5093330;28;20123;-90
2022/05/05 08:51:00;;;;;;;9.50;3.53;;;15.00;99.90;;;;;;5093398;28;20096;-93
2022/05/05 08:53:32;;;;;;;13.07;4.10;;;15.10;99.90;;;;;;5092397;28;20087;-91
2022/05/05 08:56:00;;;;;;;9.73;4.05;;;15.20;99.90;;;;;;5098102;28;20154;-91
2022/05/05 08:58:27;;;;;;;11.80;4.47;;;15.30;99.90;;;;;;5119806;27;20036;-92
2022/05/05 09:00:53;;;;;;;14.60;4.85;;;15.30;99.90;;;;;;5092918;28;20505;-91
2022/05/05 09:03:19;;;;;;;11.60;4.95;;;15.40;99.90;;;;;;5097131;28;20059;-95
2022/05/05 09:05:46;;;;;;;8.32;4.28;;;15.50;99.90;;;;;;5094506;28;20040;-92
2022/05/05 09:08:27;;;;;;;8.00;4.03;;;15.60;99.90;;;;;;5092915;28;20070;-93
2022/05/05 09:10:54;;;;;;;5.70;3.95;;;15.80;99.90;;;;;;5093656;28;20087;-91
2022/05/05 09:13:21;;;;;;;128.65;14.25;;;15.90;99.90;;;;;;5116379;28;20055;-90
2022/05/05 09:15:47;;;;;;;25.67;5.20;;;15.90;99.90;;;;;;5114401;28;20048;-92
2022/05/05 09:18:19;;;;;;;13.00;5.68;;;16.00;99.90;;;;;;5116242;28;20093;-92
2022/05/05 09:20:47;;;;;;;8.65;4.63;;;16.20;99.90;;;;;;5107683;28;20433;-89
2022/05/05 09:23:34;;;;;;;11.50;4.88;;;16.30;99.90;;;;;;5110943;28;20040;-91
2022/05/05 09:26:01;;;;;;;19.50;5.28;;;16.40;99.90;;;;;;5098743;28;20052;-92
2022/05/05 09:28:32;;;;;;;10.30;5.43;;;16.40;99.90;;;;;;5104827;28;20104;-87
2022/05/05 09:31:04;;;;;;;7.45;4.80;;;16.50;99.90;;;;;;5114577;28;20083;-91
2022/05/05 09:33:43;;;;;;;7.43;4.97;;;16.50;99.90;;;;;;5099652;28;20048;-84
2022/05/05 09:36:10;;;;;;;11.30;5.88;;;16.60;99.90;;;;;;5091938;28;20051;-85
2022/05/05 09:38:54;;;;;;;10.05;5.75;;;16.50;99.90;;;;;;5104964;28;20040;-86
2022/05/05 09:41:22;;;;;;;10.20;5.55;;;16.50;99.90;;;;;;5113116;28;20128;-85
2022/05/05 09:43:48;;;;;;;10.60;5.93;;;16.60;99.90;;;;;;5111076;28;20043;-84
2022/05/05 09:46:26;;;;;;;15.40;6.38;;;16.60;99.90;;;;;;5115801;28;20187;-85
2022/05/05 09:49:14;;;;;;;9.10;5.57;;;16.70;99.90;;;;;;5099416;28;20047;-86
2022/05/05 09:57:45;;;;;;;10.43;5.50;;;16.70;99.90;;;;;;5087552;28;20055;-85
2022/05/05 10:05:49;;;;;;;12.75;5.78;;;17.00;99.90;;;;;;5109083;28;20502;-85
2022/05/05 10:08:20;;;;;;;7.57;5.57;;;17.20;99.90;;;;;;5116290;28;20478;-86
2022/05/05 10:10:46;;;;;;;7.95;5.05;;;17.30;99.90;;;;;;5102710;28;20051;-86
2022/05/05 10:13:13;;;;;;;10.13;6.00;;;17.50;99.90;;;;;;5097720;28;20052;-86
2022/05/05 10:15:40;;;;;;;8.07;5.82;;;17.70;99.90;;;;;;5102555;28;20047;-87
2022/05/05 10:18:06;;;;;;;12.15;5.97;;;17.80;99.90;;;;;;5095665;28;20487;-86
2022/05/05 10:20:36;;;;;;;11.55;6.78;;;18.00;99.90;;;;;;5094416;28;20517;-87
2022/05/05 10:23:11;;;;;;;11.52;6.07;;;18.10;99.90;;;;;;5096751;28;20043;-85
2022/05/05 10:25:39;;;;;;;11.73;7.50;;;18.10;99.90;;;;;;5105130;28;20570;-86
2022/05/05 10:28:42;;;;;;;9.35;6.32;;;18.00;99.90;;;;;;5115821;27;20051;-85
2022/05/05 10:31:12;;;;;;;11.65;6.97;;;18.00;99.90;;;;;;5099532;28;20149;-84
2022/05/05 10:34:00;;;;;;;12.15;6.75;;;17.90;99.70;;;;;;5096506;28;20036;-86
2022/05/05 10:36:27;;;;;;;7.97;5.82;;;18.00;99.90;;;;;;5095993;28;20051;-85
2022/05/05 10:38:53;;;;;;;12.05;6.72;;;18.10;99.90;;;;;;5094957;28;20100;-85
2022/05/05 10:41:36;;;;;;;10.77;7.25;;;18.30;99.90;;;;;;5096129;28;20052;-85
2022/05/05 10:44:23;;;;;;;10.48;7.10;;;18.50;98.50;;;;;;5104351;28;20048;-85
2022/05/05 10:46:55;;;;;;;12.77;7.07;;;18.50;97.40;;;;;;5096053;28;20055;-85
2022/05/05 10:49:33;;;;;;;12.75;7.80;;;18.60;99.70;;;;;;5093371;28;20055;-85
2022/05/05 10:52:10;;;;;;;12.50;7.30;;;18.60;96.80;;;;;;5096061;28;20502;-86
2022/05/05 10:54:38;;;;;;;10.98;6.93;;;18.60;97.50;;;;;;5095414;28;20048;-85
2022/05/05 10:57:26;;;;;;;14.57;7.07;;;18.80;97.80;;;;;;5092864;28;20047;-86
2022/05/05 11:00:10;;;;;;;10.63;7.45;;;18.90;97.70;;;;;;5094122;28;20050;-87
2022/05/05 11:02:40;;;;;;;11.05;6.93;;;18.90;96.70;;;;;;5111073;28;20035;-87
2022/05/05 11:05:28;;;;;;;10.80;6.75;;;18.60;95.90;;;;;;5112784;28;20393;-88
2022/05/05 11:08:17;;;;;;;10.90;7.13;;;18.50;97.10;;;;;;5108044;28;20046;-86
2022/05/05 11:13:42;;;;;;;10.02;7.45;;;18.60;99.20;;;;;;5114703;28;20387;-86
2022/05/05 11:22:07;;;;;;;9.18;6.63;;;18.30;96.20;;;;;;5095011;28;20127;-87
2022/05/05 11:24:33;;;;;;;;;;;18.30;95.60;;;;;;5077215;28;20505;-86
2022/05/05 11:27:00;;;;;;;10.52;7.55;;;18.20;97.70;;;;;;5095185;28;19924;-86
2022/05/05 11:29:30;;;;;;;9.30;6.85;;;18.30;97.40;;;;;;5101161;28;20047;-87
2022/05/05 11:31:58;;;;;;;9.93;6.50;;;18.40;98.10;;;;;;5094603;28;20040;-89
2022/05/05 11:34:31;;;;;;;9.88;7.25;;;18.40;97.10;;;;;;5095151;28;20051;-89
2022/05/05 11:36:59;;;;;;;11.32;7.10;;;18.60;96.00;;;;;;5093937;28;20044;-89
2022/05/05 11:39:25;;;;;;;11.25;7.40;;;18.60;95.40;;;;;;5092782;28;20169;-89
2022/05/05 11:41:58;;;;;;;9.73;6.57;;;18.70;94.70;;;;;;5093412;28;20065;-88
2022/05/05 11:44:25;;;;;;;11.93;6.83;;;19.00;95.30;;;;;;5107022;28;20047;-90
2022/05/05 11:46:57;;;;;;;8.75;6.07;;;19.10;94.40;;;;;;5099197;28;20130;-91
2022/05/05 11:49:32;;;;;;;12.50;7.55;;;19.30;94.20;;;;;;5094684;28;20120;-88
2022/05/05 11:51:59;;;;;;;11.20;7.18;;;19.60;96.00;;;;;;5092374;28;20540;-90
2022/05/05 11:54:32;;;;;;;10.85;7.15;;;19.70;95.60;;;;;;5093831;28;20044;-91
2022/05/05 11:57:00;;;;;;;17.55;7.20;;;19.90;95.30;;;;;;5096315;28;20051;-91
2022/05/05 12:02:23;;;;;;;10.98;6.55;;;20.00;93.20;;;;;;5103421;28;20552;-89
2022/05/05 12:05:08;;;;;;;8.88;6.53;;;20.00;91.60;;;;;;5104171;28;20122;-92
2022/05/05 12:07:35;;;;;;;10.60;6.85;;;20.00;92.00;;;;;;5111661;28;20146;-89
2022/05/05 12:10:08;;;;;;;10.20;6.65;;;19.90;91.10;;;;;;5101676;28;20044;-88
2022/05/05 12:12:37;;;;;;;15.27;7.35;;;19.80;91.10;;;;;;5093459;28;20491;-91
2022/05/05 12:15:06;;;;;;;8.98;5.70;;;19.80;91.30;;;;;;5097395;28;20047;-91
2022/05/05 12:17:42;;;;;;;6.35;5.68;;;19.70;88.10;;;;;;5111220;28;20103;-93
2022/05/05 12:20:11;;;;;;;8.45;6.15;;;19.50;86.30;;;;;;5094950;28;20044;-95
2022/05/05 12:22:39;;;;;;;10.48;7.43;;;19.40;88.20;;;;;;5118787;28;20099;-94
2022/05/05 12:25:13;;;;;;;8.55;6.35;;;19.10;88.60;;;;;;5106602;28;20036;-93
2022/05/05 12:27:43;;;;;;;12.50;7.63;;;19.00;90.80;;;;;;5095419;28;20044;-93
2022/05/05 12:30:10;;;;;;;9.95;6.82;;;19.10;92.20;;;;;;5104363;28;20047;-91
2022/05/05 12:32:50;;;;;;;10.95;7.43;;;19.30;92.10;;;;;;5113058;28;20043;-89
2022/05/05 12:35:17;;;;;;;11.15;7.68;;;19.20;92.30;;;;;;5111327;28;20088;-91
2022/05/05 12:37:46;;;;;;;9.82;7.57;;;18.90;91.00;;;;;;5114387;28;20422;-87
2022/05/05 12:40:15;;;;;;;13.68;7.00;;;18.80;91.50;;;;;;5093808;28;20376;-89
2022/05/05 12:42:48;;;;;;;9.75;7.22;;;18.90;94.30;;;;;;5093250;28;20055;-90
2022/05/05 12:45:26;;;;;;;11.93;7.47;;;18.90;94.80;;;;;;5100032;28;20105;-90
2022/05/05 12:47:54;;;;;;;9.93;8.13;;;19.00;94.30;;;;;;5129930;28;20040;-92
2022/05/05 12:50:30;;;;;;;11.82;7.65;;;18.90;92.80;;;;;;5128191;28;20050;-92
2022/05/05 13:01:24;;;;;;;9.63;7.25;;;18.90;94.10;;;;;;5114512;28;20124;-91
2022/05/05 13:03:54;;;;;;;8.98;7.18;;;19.00;94.70;;;;;;5083807;28;20101;-93
2022/05/05 13:06:21;;;;;;;14.30;7.47;;;19.10;93.30;;;;;;5110854;28;20038;-93
2022/05/05 13:08:47;;;;;;;10.25;7.28;;;19.20;93.30;;;;;;5100991;28;20047;-92
2022/05/05 13:11:17;;;;;;;9.63;6.70;;;19.30;92.20;;;;;;5091491;28;20577;-90
2022/05/05 13:13:48;;;;;;;12.23;8.38;;;19.50;92.60;;;;;;5094729;28;20048;-93
2022/05/05 13:16:14;;;;;;;7.82;5.85;;;19.60;90.80;;;;;;5094509;28;20055;-96
2022/05/05 13:18:40;;;;;;;14.38;6.20;;;19.60;90.20;;;;;;5093939;28;20459;-90
2022/05/05 13:21:06;;;;;;;11.55;6.88;;;19.60;90.30;;;;;;5102203;28;20394;-90
2022/05/05 13:23:32;;;;;;;8.32;5.70;;;19.50;90.50;;;;;;5107699;28;20044;-91
2022/05/05 13:25:58;;;;;;;9.95;6.28;;;19.40;90.30;;;;;;5099286;28;20122;-90
2022/05/05 13:28:24;;;;;;;7.72;6.22;;;19.50;92.60;;;;;;5108700;28;20496;-93
2022/05/05 13:30:50;;;;;;;7.32;5.75;;;19.60;92.30;;;;;;5118684;28;20431;-93
2022/05/05 13:33:16;;;;;;;9.07;6.63;;;19.60;90.10;;;;;;5126361;27;20055;-90
2022/05/05 13:35:42;;;;;;;10.20;6.97;;;19.60;88.10;;;;;;5099960;28;20394;-92
2022/05/05 13:38:08;;;;;;;9.73;6.82;;;19.50;89.00;;;;;;5099594;28;20127;-93
2022/05/05 13:40:35;;;;;;;11.50;6.40;;;19.30;88.40;;;;;;5105445;28;20035;-92